Smoaks, SC (29481)

2:42 AM EST on February 06, 2016 (GMT -0500)
KQ4WH, Skunkworks | | Change Station
CLOSE
Current Station
Personal Weather Station
Location: Smoaks, SC
Elevation: 108 ft
Nearby Weather Stations
Active Advisory: Flood Warning

Elev 108 ft 33.09 °N, 80.81 °W | Updated 5 seconds ago

Clear
Clear
29.2 °F
Feels Like 29 °F
N
0.0
Wind Variable Wind from SE
Gusts 0.0 mph

Today
High -- | Low -- °F
--% Chance of Precip.
Yesterday
High -- | Low -- °F
Precip. -- in
Pressure 30.39 in
Visibility 10.0 miles
Clouds Clear
Windchill 29 °F
Dew Point 27 °F
Humidity 93%
Rainfall 0.00 in
Snow Depth Not available.
7:15 AM 5:59 PM
Waning Crescent, 7% visible
METAR KRBW 060735Z AUTO 00000KT 10SM CLR 02/00 A3039 RMK AO2
Pressure 30.39 in
Visibility 10.0 miles
Clouds Clear
Windchill 29 °F
Dew Point 27 °F
Humidity 93%
Rainfall 0.00 in
Snow Depth Not available.
7:15 AM 5:59 PM
Waning Crescent, 7% visible
METAR KRBW 060735Z AUTO 00000KT 10SM CLR 02/00 A3039 RMK AO2

10-Day Weather Forecast

Almanac

Astronomy

Feb. 06, 2016 Rise Set
Actual Time
Civil Twilight
Nautical Twilight
Astronomical Twilight
Moon
Length of Visible Light
Length of Day
Tomorrow will be .
, % of the Moon is Illuminated

Today's Extremes

State Highs State Lows

Community

WunderPhotos

Upload Photos

1,890,933 photos uploaded!

WunderBlog® & News

Nearby

Air Quality

  Air Quality AQ Index Pollutant
Not available.

Snow Depth

Station Depth Elevation

Earthquake Activity

City Distance Mag. Time & Date
Minimum magnitude displayed is 2.5.

Coastal Water Temperatures

Place Temperature

Stations

Nearby Weather Stations

Station Location Temp. Windchill Dew Point Humidity Wind Precip. Elev Updated Type
                   

Watches & Warnings

Flood Warning
Issued: 9:42 PM EST Feb. 5, 2016 – National Weather Service

The Flood Warning continues for
the edisto river near Givhans Ferry.
* At 9 PM Friday the stage was 11.4 feet.
* Flood stage is 10.0 feet.
* Minor flooding is occurring and moderate flooding is forecast.
* Forecast, the river will continue rising to near 13.2 feet by
Monday evening. Additional rises may be possible thereafter.
* At 13.0 feet, some homes near the end of happiness Lane are flooded.
Most homes and Cabins along the river between Canadys and Norman
Landing are accessible only by boat.


Lat... Lon 3304 8065 3311 8062 3308 8036 3286 8036
          3286 8045 3302 8044